KOAJ/OAJ METAR and TAF weather

Enter ICAO airport designator
Station Type Date Time Source
KOAJ METAR 2019/08/20 08:56 UTC NOAA

KOAJ 200856Z AUTO 23003KT 8SM CLR 23/22 A3010 RMK AO2 SLP196 T02280222 53001


Station Type Date Time Source
KOAJ Decoded METAR 2019/08/20 08:56 UTC NOAA

Jacksonville, Albert J Ellis Airport, NC, United States (KOAJ) 34-50N 077-37W
Aug 20, 2019 - 04:56 AM EDT / 2019.08.20 0856 UTC
Wind: from the SW (230 degrees) at 3 MPH (3 KT):0
Visibility: 8 mile(s):0
Sky conditions: clear
Temperature: 73.0 F (22.8 C)
Dew Point: 72.0 F (22.2 C)
Relative Humidity: 96%
Pressure (altimeter): 30.1 in. Hg (1019 hPa)
Pressure tendency: 0.00 inches (0.1 hPa) higher than three hours ago
ob: KOAJ 200856Z AUTO 23003KT 8SM CLR 23/22 A3010 RMK AO2 SLP196 T02280222 53001
cycle: 9

Station Type Date Time Source
KOAJ TAF 2019/08/20 06:24 UTC NOAA

TAF KOAJ 200521Z 2006/2106 22003KT P6SM BKN150
TEMPO 2008/2012 4SM BR
FM201800 21007KT P6SM SCT050
AMD LTD TO CLD VIS AND WIND

Example: see airport list